createdAt,value
2023-01-17T00:22:36.550Z,23.60
2023-01-17T00:52:40.147Z,17.70
2023-01-17T01:22:44.698Z,10.43
2023-01-17T01:52:48.280Z,18.60
2023-01-17T02:22:51.201Z,16.83
2023-01-17T02:52:54.410Z,16.93
2023-01-17T03:22:57.386Z,22.70
2023-01-17T03:53:00.776Z,24.67
2023-01-17T04:23:03.767Z,17.40
2023-01-17T04:53:06.693Z,18.73
2023-01-17T05:23:10.391Z,15.77
2023-01-17T05:53:13.562Z,8.07
2023-01-17T06:23:17.252Z,5.93
2023-01-17T06:53:20.217Z,6.70
2023-01-17T07:23:23.561Z,5.87
2023-01-17T07:53:26.405Z,7.93
2023-01-17T08:23:30.168Z,5.85
2023-01-17T08:53:33.038Z,5.03
2023-01-17T09:23:36.799Z,5.97
2023-01-17T09:53:39.627Z,3.10
2023-01-17T10:23:44.363Z,2.07
2023-01-17T10:53:47.291Z,1.67
2023-01-17T11:23:50.275Z,2.60
2023-01-17T11:53:53.773Z,2.70
2023-01-17T12:23:57.327Z,2.50
2023-01-17T12:54:00.156Z,1.45
2023-01-17T13:24:04.164Z,2.00
2023-01-17T13:54:07.026Z,1.87
2023-01-17T14:24:10.598Z,3.30
2023-01-17T14:54:13.477Z,3.03
2023-01-17T15:24:17.157Z,4.60
2023-01-17T15:54:20.176Z,10.05
2023-01-17T16:24:27.594Z,7.47
2023-01-17T16:54:30.539Z,9.37
2023-01-17T17:24:35.088Z,6.80
2023-01-17T17:54:38.143Z,16.33
2023-01-17T18:24:42.236Z,16.73
2023-01-17T18:54:45.157Z,29.80
2023-01-17T19:24:49.625Z,19.57
2023-01-17T19:54:52.520Z,28.80
2023-01-17T20:24:56.638Z,28.10
2023-01-17T20:54:59.551Z,49.93
2023-01-17T21:25:04.535Z,42.97
2023-01-17T21:55:07.851Z,46.83
2023-01-17T22:25:11.828Z,52.07
2023-01-17T22:55:14.983Z,40.63
2023-01-17T23:25:17.927Z,44.77
2023-01-17T23:55:21.575Z,53.37
